createdAt,value
2017-09-25T00:18:20.848Z,85.40
2017-09-25T00:20:49.116Z,85.50
2017-09-25T00:23:17.363Z,85.60
2017-09-25T00:25:44.840Z,85.60
2017-09-25T00:28:12.411Z,85.60
2017-09-25T00:30:40.658Z,85.40
2017-09-25T00:33:08.169Z,85.40
2017-09-25T00:35:35.656Z,85.40
2017-09-25T00:38:03.134Z,85.30
2017-09-25T00:40:30.624Z,85.40
2017-09-25T00:42:58.872Z,85.40
2017-09-25T00:45:26.367Z,85.40
2017-09-25T00:47:54.612Z,85.50
2017-09-25T00:50:22.097Z,85.50
2017-09-25T00:53:02.364Z,85.70
2017-09-25T00:58:31.264Z,85.70
2017-09-25T01:01:11.331Z,85.70
2017-09-25T01:03:50.760Z,85.60
2017-09-25T01:06:26.726Z,85.80
2017-09-25T01:08:54.312Z,85.80
2017-09-25T01:11:21.787Z,85.80
2017-09-25T01:13:49.275Z,86.00
2017-09-25T01:16:16.767Z,85.90
2017-09-25T01:18:44.258Z,86.50
2017-09-25T01:21:11.756Z,86.20
2017-09-25T01:23:40.011Z,86.40
2017-09-25T01:26:07.492Z,86.40
2017-09-25T01:28:35.766Z,86.40
2017-09-25T01:31:03.243Z,86.30
2017-09-25T01:33:31.613Z,86.40
2017-09-25T01:35:59.887Z,86.50
2017-09-25T01:38:28.159Z,86.80
2017-09-25T01:40:56.419Z,86.80
2017-09-25T01:43:23.910Z,86.70
2017-09-25T01:45:52.175Z,86.70
2017-09-25T01:48:20.423Z,86.80
2017-09-25T01:50:47.900Z,86.70
2017-09-25T01:53:15.395Z,86.50
2017-09-25T01:55:42.875Z,87.10
2017-09-25T01:58:10.376Z,86.50
2017-09-25T02:00:37.852Z,86.50
2017-09-25T02:03:06.099Z,86.40
2017-09-25T02:05:33.594Z,86.40
2017-09-25T02:08:01.077Z,86.50
2017-09-25T02:10:28.587Z,86.40
2017-09-25T02:12:56.068Z,86.40
2017-09-25T02:15:23.552Z,86.40
2017-09-25T02:17:51.044Z,86.50
2017-09-25T02:20:18.525Z,86.60
2017-09-25T02:22:46.795Z,86.70
2017-09-25T07:22:33.059Z,82.60
2017-09-25T07:25:01.313Z,81.70
2017-09-25T07:27:29.636Z,82.00
2017-09-25T07:29:57.189Z,81.70
2017-09-25T07:32:24.687Z,81.90
2017-09-25T07:34:52.194Z,82.00
2017-09-25T07:37:19.679Z,81.70
2017-09-25T07:39:47.192Z,81.90
2017-09-25T07:42:15.452Z,81.30
2017-09-25T07:44:42.931Z,81.20
2017-09-25T07:47:11.303Z,81.20
2017-09-25T07:49:39.551Z,81.30
2017-09-25T07:52:07.028Z,80.90
2017-09-25T07:54:35.301Z,81.00
2017-09-25T07:57:02.775Z,81.00
2017-09-25T07:59:31.088Z,80.90
2017-09-25T08:01:58.575Z,80.90
2017-09-25T08:04:26.059Z,80.50
2017-09-25T08:06:53.603Z,80.60
2017-09-25T08:09:21.110Z,80.50
2017-09-25T08:11:48.608Z,80.00
2017-09-25T08:14:16.087Z,80.00
2017-09-25T08:16:43.559Z,79.90
2017-09-25T08:19:11.819Z,79.70
2017-09-25T08:21:39.296Z,79.60
2017-09-25T08:24:07.588Z,79.90
2017-09-25T08:26:35.885Z,79.70
2017-09-25T08:29:03.356Z,79.60
2017-09-25T08:31:30.849Z,79.60
2017-09-25T08:33:58.337Z,79.50
2017-09-25T08:36:26.600Z,78.80
2017-09-25T08:38:54.841Z,79.00
2017-09-25T08:41:22.315Z,78.90
2017-09-25T08:43:49.819Z,79.00
2017-09-25T08:46:17.295Z,79.10
2017-09-25T08:48:44.787Z,78.60
2017-09-25T08:51:12.257Z,78.70
2017-09-25T08:53:40.504Z,78.40
2017-09-25T08:56:07.996Z,78.40
2017-09-25T08:58:36.244Z,78.20
2017-09-25T09:01:03.764Z,78.10
2017-09-25T09:03:31.236Z,78.00
2017-09-25T09:05:58.707Z,77.50
2017-09-25T09:08:49.556Z,78.30
2017-09-25T09:11:17.801Z,78.50
2017-09-25T09:13:45.297Z,78.20
2017-09-25T09:16:13.546Z,77.40
2017-09-25T09:18:41.024Z,77.40
2017-09-25T09:21:09.280Z,77.10
2017-09-25T09:23:36.767Z,77.10
2017-09-25T09:26:05.037Z,76.80
2017-09-25T09:28:33.283Z,76.60
2017-09-25T09:31:00.764Z,76.60
2017-09-25T09:33:28.335Z,76.00
2017-09-25T09:35:55.809Z,76.30
2017-09-25T09:38:24.075Z,75.50
2017-09-25T09:40:52.313Z,75.20
2017-09-25T09:43:19.792Z,75.00
2017-09-25T09:45:47.297Z,75.60
2017-09-25T09:48:14.776Z,75.60
2017-09-25T09:50:42.267Z,75.90
2017-09-25T09:53:09.752Z,75.30
2017-09-25T09:55:37.996Z,75.30
2017-09-25T09:58:06.257Z,74.90
2017-09-25T10:00:33.732Z,74.80
2017-09-25T10:03:02.718Z,74.50
2017-09-25T10:05:30.215Z,74.40
2017-09-25T10:07:58.454Z,73.50
2017-09-25T10:10:25.936Z,73.30
2017-09-25T10:12:54.213Z,73.10
2017-09-25T10:15:22.456Z,72.70
2017-09-25T10:17:49.935Z,72.50
2017-09-25T10:20:17.434Z,72.80
2017-09-25T10:22:45.002Z,72.60
2017-09-25T10:25:12.524Z,72.40
2017-09-25T10:27:40.776Z,71.80
2017-09-25T10:30:08.249Z,71.80
2017-09-25T10:32:35.741Z,72.20
2017-09-25T10:35:04.098Z,72.10
2017-09-25T10:37:32.343Z,72.00
2017-09-25T10:39:59.863Z,72.00
2017-09-25T10:42:27.349Z,71.30
2017-09-25T10:44:54.840Z,71.70
2017-09-25T10:47:22.346Z,71.20
2017-09-25T10:49:49.832Z,71.70
2017-09-25T10:52:17.337Z,70.80
2017-09-25T10:54:44.895Z,70.70
2017-09-25T10:57:12.384Z,71.40
2017-09-25T10:59:39.880Z,70.90
2017-09-25T11:02:07.356Z,70.80
2017-09-25T11:04:35.636Z,70.10
2017-09-25T11:07:03.893Z,70.80
2017-09-25T11:09:31.371Z,70.70
2017-09-25T11:11:59.639Z,69.80
2017-09-25T11:14:27.112Z,69.80
2017-09-25T11:16:55.406Z,69.50
2017-09-25T11:19:22.896Z,69.30
2017-09-25T11:21:50.380Z,68.80
2017-09-25T11:24:17.879Z,69.10
2017-09-25T11:26:45.450Z,68.20
2017-09-25T11:29:12.947Z,67.50
2017-09-25T11:31:40.432Z,67.30
2017-09-25T11:34:08.668Z,67.00
2017-09-25T11:36:36.156Z,67.00
2017-09-25T11:39:03.639Z,66.90
2017-09-25T11:41:31.900Z,66.20
2017-09-25T11:44:00.150Z,66.50
2017-09-25T11:46:27.640Z,66.50
2017-09-25T11:48:55.904Z,66.80
2017-09-25T11:51:24.161Z,67.00
2017-09-25T11:53:51.669Z,66.30
2017-09-25T11:56:19.147Z,64.80
2017-09-25T11:58:46.639Z,64.80
2017-09-25T12:01:14.143Z,65.90
2017-09-25T12:03:41.615Z,65.70
2017-09-25T12:06:09.107Z,64.50
2017-09-25T12:08:36.593Z,63.40
2017-09-25T12:11:04.064Z,63.40
2017-09-25T12:13:32.331Z,64.00
2017-09-25T12:16:00.575Z,64.10
2017-09-25T12:18:28.071Z,64.20
2017-09-25T12:20:56.379Z,62.30
2017-09-25T12:23:23.880Z,62.20
2017-09-25T12:25:51.385Z,61.90
2017-09-25T12:28:18.859Z,60.40
2017-09-25T12:30:46.351Z,60.00
2017-09-25T12:33:13.823Z,60.10
2017-09-25T12:35:41.300Z,58.70
2017-09-25T12:38:09.567Z,58.70
2017-09-25T12:40:37.811Z,58.60
2017-09-25T12:43:05.301Z,58.40
2017-09-25T12:45:33.539Z,56.40
2017-09-25T12:48:01.004Z,56.40
2017-09-25T12:50:28.491Z,56.60
2017-09-25T12:52:55.975Z,56.60
2017-09-25T12:55:23.483Z,57.30
2017-09-25T12:57:50.963Z,58.00
2017-09-25T13:00:18.436Z,58.80
2017-09-25T13:02:46.696Z,60.50
2017-09-25T13:05:14.944Z,60.90
2017-09-25T13:07:42.441Z,61.50
2017-09-25T13:10:10.689Z,61.70
2017-09-25T13:12:38.180Z,61.70
2017-09-25T13:15:06.445Z,61.80
2017-09-25T13:17:34.708Z,62.40
2017-09-25T13:20:02.327Z,62.40
2017-09-25T13:22:29.885Z,62.60
2017-09-25T13:24:57.376Z,63.40
2017-09-25T13:27:24.953Z,63.70
2017-09-25T13:29:52.465Z,64.10
2017-09-25T13:32:19.963Z,64.80
2017-09-25T13:34:47.485Z,64.50
2017-09-25T13:37:14.976Z,64.30
2017-09-25T13:39:42.476Z,64.40
2017-09-25T13:42:10.715Z,63.10
2017-09-25T13:44:38.207Z,63.10
2017-09-25T13:47:06.457Z,62.60
2017-09-25T13:49:34.696Z,62.90
2017-09-25T13:52:02.179Z,62.90
2017-09-25T13:54:29.660Z,63.00
2017-09-25T13:56:57.256Z,63.80
2017-09-25T14:04:30.660Z,64.20
2017-09-25T14:06:58.922Z,64.10
2017-09-25T14:09:26.404Z,64.10
2017-09-25T14:11:54.656Z,64.20
2017-09-25T14:14:22.140Z,64.20
2017-09-25T14:16:50.381Z,63.10
2017-09-25T14:19:17.893Z,63.00
2017-09-25T14:21:45.364Z,63.00
2017-09-25T14:24:12.847Z,61.40
2017-09-25T14:26:40.341Z,61.30
2017-09-25T14:29:07.851Z,60.80
2017-09-25T14:31:35.435Z,60.00
2017-09-25T14:34:02.949Z,60.40
2017-09-25T14:36:30.435Z,59.40
2017-09-25T14:38:57.920Z,59.50
2017-09-25T14:41:25.433Z,59.40
2017-09-25T14:43:52.929Z,59.60
2017-09-25T14:46:20.404Z,60.00
2017-09-25T14:48:48.660Z,60.70
2017-09-25T14:51:16.159Z,60.50
2017-09-25T14:53:43.635Z,60.60
2017-09-25T14:56:11.128Z,60.50
2017-09-25T14:58:38.613Z,60.40
2017-09-25T15:01:06.898Z,61.10
2017-09-25T15:03:35.174Z,60.60
2017-09-25T15:06:03.431Z,60.80
2017-09-25T15:08:30.937Z,60.80
2017-09-25T15:10:58.417Z,59.70
2017-09-25T15:13:25.902Z,60.50
2017-09-25T15:15:53.404Z,60.60
2017-09-25T15:18:20.885Z,60.70
2017-09-25T15:20:48.397Z,61.00
2017-09-25T15:23:16.648Z,60.90
2017-09-25T15:25:44.184Z,60.90
2017-09-25T15:28:11.704Z,61.50
2017-09-25T15:30:39.977Z,61.70
2017-09-25T15:33:07.488Z,61.70
2017-09-25T15:35:34.975Z,61.50
2017-09-25T15:38:02.458Z,62.50
2017-09-25T15:40:30.011Z,61.80
2017-09-25T15:42:58.248Z,62.30
2017-09-25T15:45:25.759Z,62.30
2017-09-25T15:47:54.048Z,62.70
2017-09-25T15:50:21.517Z,62.70
2017-09-25T15:52:49.009Z,63.50
2017-09-25T15:55:16.525Z,63.60
2017-09-25T15:57:44.020Z,63.60
2017-09-25T16:00:11.496Z,63.80
2017-09-25T16:02:39.743Z,65.30
2017-09-25T16:05:07.236Z,64.60
2017-09-25T16:07:34.846Z,64.60
2017-09-25T16:10:02.356Z,64.50
2017-09-25T16:12:29.826Z,64.60
2017-09-25T16:14:58.068Z,65.10
2017-09-25T16:17:25.551Z,65.10
2017-09-25T16:19:53.828Z,65.40
2017-09-25T16:22:22.175Z,65.50
2017-09-25T16:24:49.655Z,65.50
2017-09-25T16:27:17.127Z,65.20
2017-09-25T16:29:45.408Z,65.60
2017-09-25T16:32:13.648Z,65.70
2017-09-25T16:34:41.151Z,65.60
2017-09-25T16:37:09.448Z,65.90
2017-09-25T16:39:36.940Z,65.90
2017-09-25T16:42:04.551Z,66.00
2017-09-25T16:44:32.031Z,66.30
2017-09-25T16:46:59.526Z,66.70
2017-09-25T16:49:27.008Z,66.70
2017-09-25T16:51:55.248Z,67.20
2017-09-25T16:54:22.767Z,67.20
2017-09-25T16:56:50.245Z,67.40
2017-09-25T16:59:17.747Z,67.90
2017-09-25T17:01:45.219Z,68.10
2017-09-25T17:04:13.460Z,68.80
2017-09-25T17:06:41.016Z,68.80
2017-09-25T17:09:08.497Z,69.00
2017-09-25T17:11:36.000Z,69.40
2017-09-25T17:14:03.469Z,69.70
2017-09-25T17:16:30.948Z,70.30
2017-09-25T17:18:58.441Z,70.60
2017-09-25T17:21:26.689Z,71.60
2017-09-25T17:23:54.184Z,71.40
2017-09-25T17:26:22.431Z,72.20
2017-09-25T17:28:49.907Z,72.70
2017-09-25T17:31:17.478Z,72.40
2017-09-25T17:33:45.746Z,73.00
2017-09-25T17:36:13.252Z,73.00
2017-09-25T17:38:40.739Z,73.20
2017-09-25T17:41:08.216Z,73.40
2017-09-25T17:43:35.708Z,73.50
2017-09-25T17:46:03.175Z,73.50
2017-09-25T17:48:30.683Z,73.40
2017-09-25T17:50:58.919Z,73.90
2017-09-25T17:53:26.391Z,73.90
2017-09-25T17:55:53.930Z,74.00
2017-09-25T17:58:21.414Z,74.40
2017-09-25T18:00:48.909Z,74.70
2017-09-25T18:03:17.245Z,75.20
2017-09-25T18:05:44.749Z,75.20
2017-09-25T18:08:13.003Z,75.40
2017-09-25T18:10:40.482Z,75.40
2017-09-25T18:13:08.740Z,75.90
2017-09-25T18:15:36.217Z,75.90
2017-09-25T18:18:04.484Z,76.50
2017-09-25T18:20:31.969Z,76.50
2017-09-25T18:22:59.443Z,76.80
2017-09-25T18:25:26.933Z,77.30
2017-09-25T18:27:54.423Z,77.70
2017-09-25T18:30:22.699Z,78.90
2017-09-25T18:32:50.976Z,78.30
2017-09-25T18:35:18.456Z,78.30
2017-09-25T18:37:45.953Z,78.40
2017-09-25T18:40:13.503Z,78.60
2017-09-25T18:42:41.027Z,79.00
2017-09-25T18:45:09.284Z,79.80
2017-09-25T18:47:36.815Z,79.80
2017-09-25T18:50:04.341Z,80.10
2017-09-25T18:52:31.840Z,80.30
2017-09-25T18:54:59.368Z,80.50
2017-09-25T18:57:26.849Z,80.50
2017-09-25T18:59:54.325Z,80.70
2017-09-25T19:02:23.332Z,80.90
2017-09-25T19:04:51.597Z,81.30
2017-09-25T19:07:19.891Z,81.70
2017-09-25T19:09:48.184Z,82.00
2017-09-25T19:12:15.669Z,81.90
2017-09-25T19:14:43.176Z,82.30
2017-09-25T19:17:11.419Z,82.90
2017-09-25T19:19:38.923Z,82.90
2017-09-25T19:22:07.161Z,82.80
2017-09-25T19:24:34.671Z,82.80
2017-09-25T19:27:02.933Z,82.70
2017-09-25T19:29:31.180Z,83.00
2017-09-25T19:31:58.683Z,82.90
2017-09-25T19:34:26.940Z,83.50
2017-09-25T19:36:55.188Z,83.60
2017-09-25T19:39:22.715Z,83.60
2017-09-25T19:41:50.217Z,83.70
2017-09-25T19:44:17.730Z,83.80
2017-09-25T19:46:45.217Z,84.00
2017-09-25T19:52:16.389Z,84.70
2017-09-25T19:54:43.996Z,84.70
2017-09-25T19:57:14.156Z,84.90
2017-09-25T19:59:41.655Z,85.30
2017-09-25T20:02:09.141Z,85.40
2017-09-25T20:04:36.614Z,85.50
2017-09-25T20:07:04.153Z,85.40
2017-09-25T20:09:32.404Z,85.70
2017-09-25T20:12:04.410Z,85.70
2017-09-25T20:17:40.239Z,86.10
2017-09-25T20:20:07.723Z,86.70
2017-09-25T20:22:35.967Z,86.40
2017-09-25T20:25:03.456Z,86.40
2017-09-25T20:27:31.728Z,86.60
2017-09-25T20:30:00.003Z,86.70
2017-09-25T20:32:28.251Z,86.70
2017-09-25T20:34:55.723Z,86.70
2017-09-25T20:37:24.004Z,85.90
2017-09-25T20:39:52.243Z,85.50
2017-09-25T20:42:22.216Z,85.40
2017-09-25T20:44:50.451Z,85.40
2017-09-25T20:47:17.926Z,85.40
2017-09-25T20:49:45.417Z,85.20
2017-09-25T20:52:12.901Z,85.20
2017-09-25T20:54:40.388Z,85.10
2017-09-25T20:57:07.863Z,85.10
2017-09-25T20:59:36.115Z,85.50
2017-09-25T21:02:03.707Z,85.00
2017-09-25T21:04:31.959Z,84.70
2017-09-25T21:06:59.453Z,84.70
2017-09-25T21:09:27.871Z,85.20
2017-09-25T21:11:55.367Z,85.20
2017-09-25T21:14:23.636Z,85.90
2017-09-25T21:16:51.236Z,85.60
2017-09-25T21:19:18.735Z,85.80
2017-09-25T21:21:46.243Z,86.10
2017-09-25T21:24:14.491Z,86.30
2017-09-25T21:26:42.587Z,87.00
2017-09-25T21:29:10.895Z,86.50
2017-09-25T21:31:38.399Z,86.50
2017-09-25T21:34:05.881Z,86.50
2017-09-25T21:36:34.145Z,87.00
2017-09-25T21:39:02.408Z,87.20
2017-09-25T21:41:29.897Z,87.10
2017-09-25T21:43:58.161Z,87.60
2017-09-25T21:46:26.400Z,87.70
2017-09-25T21:48:53.892Z,87.70
2017-09-25T21:51:22.154Z,88.20
2017-09-25T21:53:49.632Z,88.10
2017-09-25T21:56:17.946Z,88.20
2017-09-25T21:58:45.411Z,88.10
2017-09-25T22:01:12.889Z,87.90
2017-09-25T22:03:40.375Z,87.90
2017-09-25T22:06:09.352Z,88.00
2017-09-25T22:08:37.031Z,87.90
2017-09-25T22:11:06.012Z,88.00
2017-09-25T22:13:33.499Z,88.00
2017-09-25T22:16:01.764Z,88.00
2017-09-25T22:18:29.240Z,88.00
2017-09-25T22:20:57.503Z,88.40
2017-09-25T22:23:25.743Z,88.60
2017-09-25T22:25:53.236Z,88.60
2017-09-25T22:28:21.491Z,88.70
2017-09-25T22:30:49.003Z,88.70
2017-09-25T22:33:16.503Z,88.80
2017-09-25T22:35:43.968Z,88.80
2017-09-25T22:38:11.469Z,89.20
2017-09-25T22:40:39.718Z,89.00
2017-09-25T22:43:22.820Z,89.00
2017-09-25T22:45:51.820Z,89.10
2017-09-25T22:48:19.292Z,89.00
2017-09-25T22:50:47.531Z,88.90
2017-09-25T22:53:15.041Z,88.90
2017-09-25T22:55:43.283Z,88.30
2017-09-25T22:58:10.780Z,88.20
2017-09-25T23:00:39.021Z,87.70
2017-09-25T23:03:06.495Z,87.50
2017-09-25T23:05:38.401Z,86.90
2017-09-25T23:08:05.879Z,86.80
2017-09-25T23:10:33.368Z,86.70
2017-09-25T23:13:00.839Z,86.60
2017-09-25T23:15:29.100Z,86.00
2017-09-25T23:17:56.568Z,85.30
2017-09-25T23:20:24.165Z,85.20
2017-09-25T23:22:51.643Z,85.40
2017-09-25T23:25:19.188Z,85.80
2017-09-25T23:27:46.679Z,85.60
2017-09-25T23:30:33.935Z,85.70
2017-09-25T23:33:02.197Z,85.50
2017-09-25T23:35:31.179Z,85.80
2017-09-25T23:37:58.656Z,85.80
2017-09-25T23:40:26.916Z,85.90
2017-09-25T23:42:54.392Z,85.90
2017-09-25T23:45:22.665Z,85.90
2017-09-25T23:47:50.911Z,86.00
2017-09-25T23:50:18.382Z,86.00
2017-09-25T23:52:45.871Z,86.50
2017-09-25T23:55:14.114Z,87.00
2017-09-25T23:57:41.612Z,86.90
